createdAt,value
2023-01-19T00:00:55.549Z,100090.81
2023-01-19T00:03:22.543Z,100089.06
2023-01-19T00:05:49.784Z,100089.59
2023-01-19T00:08:17.552Z,100088.78
2023-01-19T00:10:53.086Z,100088.84
2023-01-19T00:13:20.087Z,100093.19
2023-01-19T00:15:47.326Z,100091.66
2023-01-19T00:18:14.370Z,100089.59
2023-01-19T00:20:41.547Z,100098.25
2023-01-19T00:23:09.543Z,100092.53
2023-01-19T00:25:42.431Z,100103.56
2023-01-19T00:28:15.533Z,100094.00
2023-01-19T00:30:42.894Z,100100.06
2023-01-19T00:33:13.741Z,100096.72
2023-01-19T00:35:42.707Z,100092.72
2023-01-19T00:38:11.669Z,100098.56
2023-01-19T00:40:38.678Z,100094.13
2023-01-19T00:43:05.681Z,100091.44
2023-01-19T00:45:34.224Z,100090.63
2023-01-19T00:48:01.324Z,100091.44
2023-01-19T00:50:30.684Z,100096.41
2023-01-19T00:53:01.485Z,100089.75
2023-01-19T00:55:29.716Z,100095.53
2023-01-19T00:57:57.590Z,100091.63
2023-01-19T01:00:25.752Z,100095.72
2023-01-19T01:02:53.869Z,100090.56
2023-01-19T01:05:21.358Z,100096.72
2023-01-19T01:07:49.609Z,100099.19
2023-01-19T01:10:22.994Z,100103.38
2023-01-19T01:13:20.012Z,100097.47
2023-01-19T01:15:37.417Z,100103.50
2023-01-19T01:18:04.411Z,100110.56
2023-01-19T01:20:33.667Z,100108.75
2023-01-19T01:23:01.329Z,100109.38
2023-01-19T01:25:31.067Z,100113.13
2023-01-19T01:27:58.142Z,100119.00
2023-01-19T01:30:25.130Z,100122.59
2023-01-19T01:32:52.143Z,100120.13
2023-01-19T01:35:19.319Z,100132.81
2023-01-19T01:37:46.311Z,100146.88
2023-01-19T01:40:17.313Z,100163.09
2023-01-19T01:42:45.477Z,100169.13
2023-01-19T01:45:35.629Z,100168.16
2023-01-19T01:48:06.308Z,100171.66
2023-01-19T01:50:38.204Z,100178.63
2023-01-19T01:53:13.831Z,100169.84
2023-01-19T01:55:48.230Z,100180.09
2023-01-19T01:58:16.266Z,100186.31
2023-01-19T02:01:02.168Z,100193.38
2023-01-19T02:03:29.419Z,100191.31
2023-01-19T02:06:00.487Z,100196.53
2023-01-19T02:09:24.278Z,100192.91
2023-01-19T02:12:09.666Z,100197.34
2023-01-19T02:14:39.985Z,100204.13
2023-01-19T02:17:07.689Z,100209.44
2023-01-19T02:19:42.405Z,100204.81
2023-01-19T02:22:36.067Z,100200.59
2023-01-19T02:25:07.339Z,100210.16
2023-01-19T02:27:34.672Z,100204.09
2023-01-19T02:30:03.767Z,100204.88
2023-01-19T02:32:30.894Z,100204.03
2023-01-19T02:34:58.411Z,100201.53
2023-01-19T02:37:29.268Z,100193.31
2023-01-19T02:40:00.903Z,100186.63
2023-01-19T02:42:32.571Z,100203.84
2023-01-19T02:44:59.960Z,100203.25
2023-01-19T02:47:27.054Z,100209.09
2023-01-19T02:50:00.967Z,100212.75
2023-01-19T02:52:28.452Z,100216.91
2023-01-19T02:55:23.535Z,100225.66
2023-01-19T02:57:56.779Z,100229.97
2023-01-19T03:01:18.390Z,100240.97
2023-01-19T03:04:06.181Z,100245.25
2023-01-19T03:07:14.723Z,100239.06
2023-01-19T03:10:00.773Z,100239.00
2023-01-19T03:12:52.513Z,100260.88
2023-01-19T03:15:50.384Z,100274.66
2023-01-19T03:18:25.190Z,100266.72
2023-01-19T03:20:57.571Z,100255.22
2023-01-19T03:23:32.024Z,100242.13
2023-01-19T03:26:00.784Z,100232.56
2023-01-19T03:28:30.266Z,100253.66
2023-01-19T03:31:15.819Z,100270.91
2023-01-19T03:33:50.995Z,100259.53
2023-01-19T03:36:31.550Z,100256.22
2023-01-19T03:39:02.456Z,100257.09
2023-01-19T03:41:32.484Z,100237.91
2023-01-19T03:44:00.220Z,100242.34
2023-01-19T03:46:28.485Z,100241.84
2023-01-19T03:48:57.176Z,100241.34
2023-01-19T03:51:24.621Z,100244.06
2023-01-19T03:53:51.880Z,100237.09
2023-01-19T03:56:25.706Z,100244.16
2023-01-19T03:58:53.094Z,100241.66
2023-01-19T04:01:23.423Z,100247.78
2023-01-19T04:03:52.554Z,100242.69
2023-01-19T04:06:21.457Z,100245.19
2023-01-19T04:08:50.338Z,100245.19
2023-01-19T04:11:17.586Z,100242.69
2023-01-19T04:13:44.978Z,100245.38
2023-01-19T04:16:12.597Z,100248.78
2023-01-19T04:18:40.739Z,100255.59
2023-01-19T04:21:08.354Z,100303.88
2023-01-19T04:23:35.349Z,100340.06
2023-01-19T04:26:06.419Z,100334.56
2023-01-19T04:28:34.992Z,100313.66
2023-01-19T04:31:02.020Z,100307.97
2023-01-19T04:33:29.315Z,100297.69
2023-01-19T04:35:56.865Z,100300.34
2023-01-19T04:38:25.819Z,100281.41
2023-01-19T04:40:54.216Z,100280.44
2023-01-19T04:43:22.365Z,100280.22
2023-01-19T04:45:49.905Z,100270.66
2023-01-19T04:48:18.580Z,100261.31
2023-01-19T04:50:46.045Z,100273.38
2023-01-19T04:53:13.911Z,100273.47
2023-01-19T04:55:46.875Z,100269.09
2023-01-19T04:58:14.044Z,100271.13
2023-01-19T05:00:41.143Z,100285.69
2023-01-19T05:03:08.299Z,100275.44
2023-01-19T05:05:35.491Z,100285.06
2023-01-19T05:08:02.587Z,100285.16
2023-01-19T05:10:29.669Z,100279.75
2023-01-19T05:12:56.832Z,100273.88
2023-01-19T05:15:23.973Z,100296.34
2023-01-19T05:17:50.976Z,100288.59
2023-01-19T05:20:18.644Z,100279.28
2023-01-19T05:22:52.727Z,100276.97
2023-01-19T05:25:20.031Z,100285.59
2023-01-19T05:27:47.282Z,100283.00
2023-01-19T05:30:16.378Z,100279.72
2023-01-19T05:32:43.536Z,100273.66
2023-01-19T05:35:10.697Z,100284.81
2023-01-19T05:37:37.685Z,100278.91
2023-01-19T05:40:05.552Z,100282.47
2023-01-19T05:42:33.013Z,100284.34
2023-01-19T05:45:00.313Z,100284.25
2023-01-19T05:47:30.280Z,100283.47
2023-01-19T05:49:57.633Z,100283.63
2023-01-19T05:52:27.463Z,100281.91
2023-01-19T05:54:55.200Z,100280.13
2023-01-19T05:57:22.844Z,100287.03
2023-01-19T05:59:50.112Z,100285.56
2023-01-19T06:02:17.235Z,100283.66
2023-01-19T06:04:44.892Z,100292.34
2023-01-19T06:07:11.928Z,100299.41
2023-01-19T06:09:38.884Z,100297.69
2023-01-19T06:12:06.488Z,100298.63
2023-01-19T06:14:33.438Z,100295.03
2023-01-19T06:17:00.804Z,100298.28
2023-01-19T06:19:27.824Z,100300.06
2023-01-19T06:21:54.797Z,100308.59
2023-01-19T06:24:21.964Z,100312.91
2023-01-19T06:26:48.932Z,100315.44
2023-01-19T06:29:16.071Z,100316.13
2023-01-19T06:31:43.136Z,100322.16
2023-01-19T06:34:10.496Z,100316.03
2023-01-19T06:36:37.520Z,100320.50
2023-01-19T06:39:06.124Z,100325.66
2023-01-19T06:41:34.149Z,100348.06
2023-01-19T06:44:02.213Z,100344.56
2023-01-19T06:46:29.870Z,100353.31
2023-01-19T06:48:57.281Z,100355.63
2023-01-19T06:51:25.528Z,100343.34
2023-01-19T06:53:52.591Z,100343.44
2023-01-19T06:56:19.581Z,100330.06
2023-01-19T06:58:48.499Z,100332.28
2023-01-19T07:01:15.541Z,100345.69
2023-01-19T07:03:42.754Z,100342.41
2023-01-19T07:06:10.092Z,100341.69
2023-01-19T07:08:38.611Z,100350.59
2023-01-19T07:11:25.419Z,100352.41
2023-01-19T07:13:56.381Z,100352.53
2023-01-19T07:16:23.928Z,100355.22
2023-01-19T07:18:51.463Z,100359.63
2023-01-19T07:21:19.245Z,100355.31
2023-01-19T07:23:49.749Z,100362.31
2023-01-19T07:26:19.906Z,100362.34
2023-01-19T07:28:48.362Z,100366.78
2023-01-19T07:31:16.251Z,100374.72
2023-01-19T07:33:43.404Z,100379.13
2023-01-19T07:36:11.156Z,100382.66
2023-01-19T07:38:38.206Z,100380.03
2023-01-19T07:41:09.251Z,100379.19
2023-01-19T07:43:36.341Z,100388.84
2023-01-19T07:46:05.820Z,100389.75
2023-01-19T07:48:33.080Z,100395.00
2023-01-19T07:51:05.630Z,100400.28
2023-01-19T07:53:32.991Z,100398.63
2023-01-19T07:56:00.006Z,100403.00
2023-01-19T07:58:27.067Z,100403.91
2023-01-19T08:00:54.420Z,100407.41
2023-01-19T08:03:21.453Z,100414.44
2023-01-19T08:05:53.166Z,100413.56
2023-01-19T08:08:20.582Z,100415.31
2023-01-19T08:10:51.499Z,100417.09
2023-01-19T08:13:18.723Z,100417.09
2023-01-19T08:15:48.805Z,100425.00
2023-01-19T08:18:15.829Z,100423.25
2023-01-19T08:20:42.863Z,100431.16
2023-01-19T08:23:10.599Z,100426.78
2023-01-19T08:25:44.472Z,100430.28
2023-01-19T08:28:14.851Z,100437.31
2023-01-19T08:30:44.360Z,100436.44
2023-01-19T08:33:12.883Z,100441.72
2023-01-19T08:35:47.462Z,100439.94
2023-01-19T08:38:14.714Z,100451.34
2023-01-19T08:40:42.754Z,100447.00
2023-01-19T08:43:16.091Z,100459.25
2023-01-19T08:45:49.828Z,100452.25
2023-01-19T08:48:22.409Z,100459.25
2023-01-19T08:50:51.025Z,100469.78
2023-01-19T08:53:21.089Z,100463.66
2023-01-19T08:55:48.087Z,100473.28
2023-01-19T08:58:15.380Z,100464.53
2023-01-19T09:00:42.574Z,100465.41
2023-01-19T09:03:13.481Z,100474.19
2023-01-19T09:05:41.035Z,100468.94
2023-01-19T09:08:11.046Z,100472.44
2023-01-19T09:10:39.620Z,100472.44
2023-01-19T09:13:10.974Z,100483.84
2023-01-19T09:15:39.596Z,100484.72
2023-01-19T09:18:12.103Z,100485.59
2023-01-19T09:20:43.453Z,100484.72
2023-01-19T09:23:12.939Z,100490.88
2023-01-19T09:25:42.015Z,100479.47
2023-01-19T09:28:11.295Z,100492.63
2023-01-19T09:30:40.818Z,100492.59
2023-01-19T09:33:16.868Z,100497.84
2023-01-19T09:35:47.019Z,100499.63
2023-01-19T09:38:16.823Z,100487.34
2023-01-19T09:40:51.856Z,100492.66
2023-01-19T09:43:53.084Z,100507.53
2023-01-19T09:46:41.697Z,100508.44
2023-01-19T09:49:25.339Z,100509.31
2023-01-19T09:51:52.598Z,100507.56
2023-01-19T09:54:36.704Z,100509.31
2023-01-19T09:57:09.687Z,100520.72
2023-01-19T09:59:37.189Z,100518.97
2023-01-19T10:02:18.748Z,100526.00
2023-01-19T10:05:27.471Z,100522.50
2023-01-19T10:08:44.489Z,100529.53
2023-01-19T10:11:52.578Z,100531.28
2023-01-19T10:14:43.429Z,100532.16
2023-01-19T10:18:01.291Z,100532.16
2023-01-19T10:20:35.336Z,100527.75
2023-01-19T10:23:14.609Z,100543.56
2023-01-19T10:25:42.057Z,100533.91
2023-01-19T10:28:11.350Z,100533.03
2023-01-19T10:30:38.726Z,100537.44
2023-01-19T10:33:05.690Z,100542.69
2023-01-19T10:35:32.724Z,100541.81
2023-01-19T10:38:02.770Z,100533.03
2023-01-19T10:40:52.104Z,100538.31
2023-01-19T10:43:34.383Z,100531.31
2023-01-19T10:46:06.176Z,100529.53
2023-01-19T10:48:42.099Z,100534.81
2023-01-19T10:51:11.136Z,100528.69
2023-01-19T10:53:38.370Z,100527.81
2023-01-19T10:56:25.036Z,100522.53
2023-01-19T10:58:52.299Z,100533.06
2023-01-19T11:01:28.359Z,100523.44
2023-01-19T11:04:05.633Z,100516.41
2023-01-19T11:06:36.639Z,100522.56
2023-01-19T11:09:15.861Z,100527.81
2023-01-19T11:11:52.291Z,100528.69
2023-01-19T11:14:23.026Z,100536.59
2023-01-19T11:16:58.357Z,100529.56
2023-01-19T11:19:32.345Z,100526.06
2023-01-19T11:22:22.850Z,100531.31
2023-01-19T11:24:50.286Z,100533.97
2023-01-19T11:27:20.354Z,100528.69
2023-01-19T11:30:18.359Z,100533.06
2023-01-19T11:32:46.858Z,100533.97
2023-01-19T11:35:38.959Z,100531.31
2023-01-19T11:38:23.149Z,100534.81
2023-01-19T11:40:57.223Z,100536.59
2023-01-19T11:43:39.799Z,100528.69
2023-01-19T11:46:15.291Z,100533.97
2023-01-19T11:49:08.407Z,100528.72
2023-01-19T11:51:56.610Z,100532.22
2023-01-19T11:54:31.428Z,100529.56
2023-01-19T11:57:00.742Z,100532.22
2023-01-19T11:59:28.483Z,100526.06
2023-01-19T12:02:00.825Z,100527.81
2023-01-19T12:04:39.103Z,100520.81
2023-01-19T12:07:10.679Z,100519.91
2023-01-19T12:09:47.402Z,100526.06
2023-01-19T12:12:33.683Z,100516.44
2023-01-19T12:15:22.792Z,100531.34
2023-01-19T12:17:53.658Z,100527.84
2023-01-19T12:20:52.897Z,100519.94
2023-01-19T12:23:32.384Z,100517.31
2023-01-19T12:26:53.290Z,100519.94
2023-01-19T12:29:23.772Z,100521.72
2023-01-19T12:32:16.748Z,100521.72
2023-01-19T12:34:51.975Z,100517.34
2023-01-19T12:37:28.830Z,100515.59
2023-01-19T12:39:59.443Z,100516.47
2023-01-19T12:42:27.319Z,100515.59
2023-01-19T12:45:27.632Z,100514.69
2023-01-19T12:47:55.924Z,100519.09
2023-01-19T12:50:29.645Z,100516.44
2023-01-19T12:53:02.115Z,100512.06
2023-01-19T12:55:33.297Z,100519.97
2023-01-19T12:58:02.395Z,100514.72
2023-01-19T13:00:36.803Z,100509.41
2023-01-19T13:03:19.069Z,100509.41
2023-01-19T13:05:54.668Z,100510.28
2023-01-19T13:08:25.434Z,100507.66
2023-01-19T13:11:05.504Z,100512.03
2023-01-19T13:13:41.209Z,100508.50
2023-01-19T13:16:20.149Z,100513.78
2023-01-19T13:19:15.772Z,100512.00
2023-01-19T13:21:48.755Z,100501.50
2023-01-19T13:24:23.183Z,100510.22
2023-01-19T13:26:50.018Z,100510.22
2023-01-19T13:29:35.090Z,100512.84
2023-01-19T13:32:24.236Z,100505.84
2023-01-19T13:35:01.867Z,100504.97
2023-01-19T13:37:40.437Z,100515.50
2023-01-19T13:40:16.002Z,100511.91
2023-01-19T13:42:44.016Z,100508.47
2023-01-19T13:45:25.524Z,100506.72
2023-01-19T13:47:54.959Z,100510.13
2023-01-19T13:50:32.320Z,100512.75
2023-01-19T13:53:00.164Z,100511.88
2023-01-19T13:55:30.441Z,100516.34
2023-01-19T13:57:58.212Z,100511.97
2023-01-19T14:00:29.950Z,100517.22
2023-01-19T14:03:18.573Z,100508.44
2023-01-19T14:05:45.704Z,100511.06
2023-01-19T14:08:15.406Z,100515.41
2023-01-19T14:10:54.082Z,100509.28
2023-01-19T14:13:29.405Z,100521.53
2023-01-19T14:16:00.536Z,100522.44
2023-01-19T14:18:33.419Z,100525.06
2023-01-19T14:21:07.775Z,100524.22
2023-01-19T14:23:52.587Z,100526.88
2023-01-19T14:26:38.040Z,100532.13
2023-01-19T14:29:16.853Z,100537.41
2023-01-19T14:31:47.655Z,100537.41
2023-01-19T14:34:45.474Z,100542.69
2023-01-19T14:37:28.999Z,100545.34
2023-01-19T14:40:10.805Z,100549.72
2023-01-19T14:42:42.396Z,100549.72
2023-01-19T14:45:21.142Z,100552.38
2023-01-19T14:48:12.239Z,100556.75
2023-01-19T14:50:51.059Z,100556.75
2023-01-19T14:53:30.280Z,100560.28
2023-01-19T14:56:04.642Z,100555.00
2023-01-19T14:58:35.480Z,100561.13
2023-01-19T15:01:03.041Z,100555.88
2023-01-19T15:03:43.364Z,100551.53
2023-01-19T15:06:19.037Z,100560.28
2023-01-19T15:08:47.030Z,100564.69
2023-01-19T15:11:35.928Z,100565.56
2023-01-19T15:14:03.512Z,100568.19
2023-01-19T15:16:34.263Z,100562.94
2023-01-19T15:19:01.525Z,100569.97
2023-01-19T15:21:28.500Z,100570.00
2023-01-19T15:23:56.298Z,100577.88
2023-01-19T15:26:26.127Z,100584.91
2023-01-19T15:28:56.160Z,100577.03
2023-01-19T15:31:25.498Z,100588.44
2023-01-19T15:33:52.507Z,100586.66
2023-01-19T15:36:22.310Z,100586.66
2023-01-19T15:38:52.084Z,100589.28
2023-01-19T15:41:27.839Z,100600.69
2023-01-19T15:43:54.809Z,100596.28
2023-01-19T15:46:23.776Z,100598.91
2023-01-19T15:48:51.662Z,100609.44
2023-01-19T15:51:22.555Z,100604.19
2023-01-19T15:53:50.041Z,100598.94
2023-01-19T15:56:21.104Z,100605.97
2023-01-19T15:58:48.499Z,100607.72
2023-01-19T16:01:18.523Z,100606.38
2023-01-19T16:03:46.138Z,100622.00
2023-01-19T16:06:13.837Z,100622.16
2023-01-19T16:08:41.183Z,100626.91
2023-01-19T16:11:11.506Z,100632.78
2023-01-19T16:13:39.459Z,100634.75
2023-01-19T16:16:17.235Z,100636.31
2023-01-19T16:18:44.737Z,100636.31
2023-01-19T16:21:12.189Z,100640.03
2023-01-19T16:23:39.383Z,100644.47
2023-01-19T16:26:22.369Z,100641.88
2023-01-19T16:28:49.386Z,100645.03
2023-01-19T16:31:16.726Z,100646.84
2023-01-19T16:33:45.915Z,100651.00
2023-01-19T16:36:30.760Z,100646.47
2023-01-19T16:39:13.335Z,100662.84
2023-01-19T16:41:41.657Z,100665.50
2023-01-19T16:44:11.574Z,100667.72
2023-01-19T16:46:43.429Z,100673.00
2023-01-19T16:49:18.692Z,100677.44
2023-01-19T16:51:45.960Z,100675.31
2023-01-19T16:54:14.883Z,100672.69
2023-01-19T16:56:42.297Z,100669.09
2023-01-19T16:59:13.511Z,100682.41
2023-01-19T17:01:40.884Z,100680.78
2023-01-19T17:04:07.860Z,100683.09
2023-01-19T17:06:35.045Z,100677.84
2023-01-19T17:09:02.080Z,100681.28
2023-01-19T17:11:31.016Z,100681.88
2023-01-19T17:14:00.827Z,100676.47
2023-01-19T17:16:29.249Z,100685.09
2023-01-19T17:18:57.467Z,100691.16
2023-01-19T17:21:24.782Z,100696.25
2023-01-19T17:23:56.414Z,100689.16
2023-01-19T17:26:28.480Z,100703.81
2023-01-19T17:29:03.865Z,100704.16
2023-01-19T17:31:32.154Z,100706.16
2023-01-19T17:34:00.168Z,100700.66
2023-01-19T17:36:28.675Z,100697.09
2023-01-19T17:38:58.859Z,100699.00
2023-01-19T17:41:28.269Z,100696.34
2023-01-19T17:43:56.009Z,100703.44
2023-01-19T17:46:25.099Z,100694.50
2023-01-19T17:48:57.370Z,100703.19
2023-01-19T17:51:25.151Z,100702.78
2023-01-19T17:53:52.745Z,100705.50
2023-01-19T17:56:21.975Z,100702.09
2023-01-19T17:58:49.803Z,100704.69
2023-01-19T18:01:22.197Z,100710.59
2023-01-19T18:03:49.552Z,100711.34
2023-01-19T18:06:16.863Z,100711.16
2023-01-19T18:08:46.245Z,100712.19
2023-01-19T18:11:13.923Z,100710.47
2023-01-19T18:13:43.378Z,100709.53
2023-01-19T18:16:16.110Z,100706.78
2023-01-19T18:18:44.147Z,100705.22
2023-01-19T18:21:13.794Z,100718.13
2023-01-19T18:23:43.368Z,100710.34
2023-01-19T18:26:12.882Z,100714.66
2023-01-19T18:28:40.109Z,100714.03
2023-01-19T18:31:08.788Z,100712.56
2023-01-19T18:33:36.252Z,100717.69
2023-01-19T18:36:03.519Z,100722.31
2023-01-19T18:38:30.398Z,100721.88
2023-01-19T18:41:23.594Z,100724.66
2023-01-19T18:43:51.969Z,100721.06
2023-01-19T18:46:19.023Z,100718.47
2023-01-19T18:48:46.016Z,100727.34
2023-01-19T18:51:14.699Z,100725.50
2023-01-19T18:53:41.864Z,100736.84
2023-01-19T18:56:11.337Z,100738.56
2023-01-19T18:58:39.233Z,100742.16
2023-01-19T19:01:33.112Z,100738.56
2023-01-19T19:04:00.863Z,100738.63
2023-01-19T19:06:28.039Z,100734.19
2023-01-19T19:08:56.588Z,100735.13
2023-01-19T19:11:24.655Z,100738.63
2023-01-19T19:13:57.482Z,100745.34
2023-01-19T19:16:24.552Z,100742.66
2023-01-19T19:18:51.593Z,100753.13
2023-01-19T19:21:19.481Z,100741.91
2023-01-19T19:23:54.039Z,100755.19
2023-01-19T19:26:21.525Z,100752.00
2023-01-19T19:28:48.454Z,100751.75
2023-01-19T19:31:20.454Z,100757.09
2023-01-19T19:33:48.622Z,100756.19
2023-01-19T19:36:15.605Z,100761.13
2023-01-19T19:38:44.406Z,100768.09
2023-01-19T19:41:19.801Z,100761.00
2023-01-19T19:43:46.858Z,100769.63
2023-01-19T19:46:15.661Z,100775.63
2023-01-19T19:48:42.641Z,100766.94
2023-01-19T19:51:18.176Z,100759.09
2023-01-19T19:53:46.391Z,100774.53
2023-01-19T19:56:13.641Z,100769.63
2023-01-19T19:58:44.338Z,100778.28
2023-01-19T20:01:14.357Z,100783.56
2023-01-19T20:03:41.903Z,100780.91
2023-01-19T20:06:11.450Z,100783.97
2023-01-19T20:08:38.400Z,100792.78
2023-01-19T20:11:10.631Z,100791.03
2023-01-19T20:13:38.882Z,100791.97
2023-01-19T20:16:10.253Z,100802.16
2023-01-19T20:18:38.657Z,100805.72
2023-01-19T20:21:23.235Z,100823.09
2023-01-19T20:23:50.700Z,100855.16
2023-01-19T20:26:20.030Z,100837.56
2023-01-19T20:28:47.585Z,100849.38
2023-01-19T20:31:20.916Z,100853.22
2023-01-19T20:33:48.957Z,100851.59
2023-01-19T20:36:15.845Z,100861.84
2023-01-19T20:38:42.745Z,100856.25
2023-01-19T20:41:11.196Z,100860.97
2023-01-19T20:43:38.707Z,100861.16
2023-01-19T20:46:06.266Z,100862.19
2023-01-19T20:48:33.308Z,100871.75
2023-01-19T20:51:11.651Z,100875.19
2023-01-19T20:53:40.080Z,100880.50
2023-01-19T20:56:14.778Z,100880.38
2023-01-19T20:58:42.047Z,100882.00
2023-01-19T21:01:13.908Z,100890.84
2023-01-19T21:03:40.907Z,100891.72
2023-01-19T21:06:07.923Z,100894.31
2023-01-19T21:08:35.407Z,100906.34
2023-01-19T21:11:02.538Z,100908.28
2023-01-19T21:13:29.452Z,100901.50
2023-01-19T21:15:56.321Z,100908.00
2023-01-19T21:18:23.311Z,100917.63
2023-01-19T21:20:50.409Z,100916.28
2023-01-19T21:23:19.106Z,100928.16
2023-01-19T21:25:53.552Z,100928.91
2023-01-19T21:28:22.666Z,100933.09
2023-01-19T21:30:50.438Z,100939.53
2023-01-19T21:33:17.543Z,100933.66
2023-01-19T21:35:55.278Z,100935.91
2023-01-19T21:38:23.462Z,100938.41
2023-01-19T21:40:50.674Z,100947.94
2023-01-19T21:43:19.993Z,100960.38
2023-01-19T21:45:47.909Z,100959.34
2023-01-19T21:48:15.403Z,100956.97
2023-01-19T21:50:42.420Z,100956.69
2023-01-19T21:53:11.283Z,100951.63
2023-01-19T21:55:42.741Z,100951.69
2023-01-19T21:58:09.631Z,100960.59
2023-01-19T22:00:36.537Z,100961.63
2023-01-19T22:03:04.747Z,100962.00
2023-01-19T22:05:36.957Z,100959.34
2023-01-19T22:08:06.304Z,100949.81
2023-01-19T22:10:37.080Z,100956.94
2023-01-19T22:13:06.621Z,100954.22
2023-01-19T22:15:33.727Z,100969.06
2023-01-19T22:18:00.652Z,100964.81
2023-01-19T22:20:27.615Z,100983.75
2023-01-19T22:22:55.496Z,100988.22
2023-01-19T22:25:27.556Z,100985.53
2023-01-19T22:27:55.348Z,100983.16
2023-01-19T22:30:22.344Z,100993.25
2023-01-19T22:32:49.310Z,100995.88
2023-01-19T22:35:16.451Z,100993.19
2023-01-19T22:37:43.295Z,101000.91
2023-01-19T22:40:10.974Z,100995.03
2023-01-19T22:42:37.811Z,100993.19
2023-01-19T22:45:04.985Z,101001.06
2023-01-19T22:47:31.923Z,100992.50
2023-01-19T22:49:58.770Z,100996.75
2023-01-19T22:52:25.645Z,100997.03
2023-01-19T22:54:56.219Z,101001.34
2023-01-19T22:57:23.107Z,100978.91
2023-01-19T22:59:50.050Z,100990.94
2023-01-19T23:02:18.638Z,100978.78
2023-01-19T23:04:47.383Z,100984.56
2023-01-19T23:07:14.366Z,100987.94
2023-01-19T23:09:41.257Z,100983.53
2023-01-19T23:12:08.109Z,100989.63
2023-01-19T23:14:36.201Z,100988.88
2023-01-19T23:17:03.114Z,100999.97
2023-01-19T23:19:29.978Z,100997.50
2023-01-19T23:21:56.944Z,100988.81
2023-01-19T23:24:23.770Z,100987.84
2023-01-19T23:26:50.917Z,100986.28
2023-01-19T23:29:18.095Z,100982.78
2023-01-19T23:31:47.202Z,100981.78
2023-01-19T23:34:14.399Z,100984.25
2023-01-19T23:36:42.549Z,100996.53
2023-01-19T23:39:22.461Z,100997.38
2023-01-19T23:41:49.873Z,100999.34
2023-01-19T23:44:17.358Z,101007.50
2023-01-19T23:46:44.561Z,101011.13
2023-01-19T23:49:12.542Z,101009.34
2023-01-19T23:51:40.049Z,101014.88
2023-01-19T23:54:07.493Z,101013.09
2023-01-19T23:56:36.326Z,101019.31
2023-01-19T23:59:08.988Z,101016.59
